sensor_id;sensor_type;location;lat;lon;timestamp;pressure;altitude;pressure_sealevel;temperature;humidity
78685;BME280;68002;52.310;6.990;2023-05-07T00:02:13;101313.34;;;14.72;81.23
78685;BME280;68002;52.310;6.990;2023-05-07T00:04:39;101268.63;;;14.44;81.53
78685;BME280;68002;52.310;6.990;2023-05-07T00:07:04;101303.88;;;14.68;81.45
78685;BME280;68002;52.310;6.990;2023-05-07T00:09:29;101295.72;;;14.60;81.43
78685;BME280;68002;52.310;6.990;2023-05-07T00:11:55;101293.00;;;14.60;81.97
78685;BME280;68002;52.310;6.990;2023-05-07T00:14:20;101319.34;;;14.66;81.74
78685;BME280;68002;52.310;6.990;2023-05-07T00:16:45;101323.03;;;14.65;81.39
78685;BME280;68002;52.310;6.990;2023-05-07T00:19:10;101294.09;;;14.49;81.92
78685;BME280;68002;52.310;6.990;2023-05-07T00:21:36;101325.75;;;14.65;81.89
78685;BME280;68002;52.310;6.990;2023-05-07T00:24:01;101280.53;;;14.41;81.60
78685;BME280;68002;52.310;6.990;2023-05-07T00:26:26;101302.72;;;14.53;82.01
78685;BME280;68002;52.310;6.990;2023-05-07T00:28:52;101296.84;;;14.40;81.75
78685;BME280;68002;52.310;6.990;2023-05-07T00:31:17;101337.44;;;14.56;81.77
78685;BME280;68002;52.310;6.990;2023-05-07T00:33:42;101314.41;;;14.44;81.55
78685;BME280;68002;52.310;6.990;2023-05-07T00:36:07;101337.00;;;14.51;82.12
78685;BME280;68002;52.310;6.990;2023-05-07T00:38:33;101310.78;;;14.35;82.20
78685;BME280;68002;52.310;6.990;2023-05-07T00:40:58;101306.22;;;14.36;82.28
78685;BME280;68002;52.310;6.990;2023-05-07T00:43:24;101298.78;;;14.30;81.69
78685;BME280;68002;52.310;6.990;2023-05-07T00:45:49;101309.13;;;14.25;81.50
78685;BME280;68002;52.310;6.990;2023-05-07T00:48:15;101320.69;;;14.35;81.46
78685;BME280;68002;52.310;6.990;2023-05-07T00:50:40;101306.72;;;14.22;81.87
78685;BME280;68002;52.310;6.990;2023-05-07T00:53:06;101330.22;;;14.29;81.75
78685;BME280;68002;52.310;6.990;2023-05-07T00:55:32;101315.84;;;14.11;82.27
78685;BME280;68002;52.310;6.990;2023-05-07T00:57:57;101312.31;;;14.10;81.66
78685;BME280;68002;52.310;6.990;2023-05-07T01:00:23;101319.41;;;14.11;81.77
78685;BME280;68002;52.310;6.990;2023-05-07T01:02:48;101312.06;;;14.04;81.82
78685;BME280;68002;52.310;6.990;2023-05-07T01:05:15;101296.69;;;13.96;81.99
78685;BME280;68002;52.310;6.990;2023-05-07T01:07:42;101314.59;;;14.05;81.63
78685;BME280;68002;52.310;6.990;2023-05-07T01:10:09;101337.75;;;14.16;82.06
78685;BME280;68002;52.310;6.990;2023-05-07T01:12:36;101318.44;;;14.03;81.85
78685;BME280;68002;52.310;6.990;2023-05-07T01:15:02;101305.72;;;13.95;81.86
78685;BME280;68002;52.310;6.990;2023-05-07T01:17:28;101326.81;;;14.00;81.78
78685;BME280;68002;52.310;6.990;2023-05-07T01:19:54;101312.81;;;13.96;81.61
78685;BME280;68002;52.310;6.990;2023-05-07T01:22:33;101312.25;;;13.93;82.32
78685;BME280;68002;52.310;6.990;2023-05-07T01:24:59;101324.97;;;14.00;82.00
78685;BME280;68002;52.310;6.990;2023-05-07T01:27:25;101305.53;;;13.79;82.87
78685;BME280;68002;52.310;6.990;2023-05-07T01:29:50;101310.50;;;13.74;82.42
78685;BME280;68002;52.310;6.990;2023-05-07T01:32:18;101272.66;;;13.58;82.67
78685;BME280;68002;52.310;6.990;2023-05-07T01:34:47;101303.19;;;13.67;82.72
78685;BME280;68002;52.310;6.990;2023-05-07T01:37:14;101304.31;;;13.64;82.36
78685;BME280;68002;52.310;6.990;2023-05-07T01:39:39;101300.94;;;13.62;81.83
78685;BME280;68002;52.310;6.990;2023-05-07T01:42:05;101299.16;;;13.53;82.74
78685;BME280;68002;52.310;6.990;2023-05-07T01:44:30;101296.72;;;13.50;82.66
78685;BME280;68002;52.310;6.990;2023-05-07T01:46:57;101300.00;;;13.44;82.44
78685;BME280;68002;52.310;6.990;2023-05-07T01:49:22;101275.72;;;13.27;82.77
78685;BME280;68002;52.310;6.990;2023-05-07T01:51:48;101294.66;;;13.35;83.43
78685;BME280;68002;52.310;6.990;2023-05-07T01:54:13;101271.91;;;13.29;82.36
78685;BME280;68002;52.310;6.990;2023-05-07T01:56:38;101274.78;;;13.18;82.36
78685;BME280;68002;52.310;6.990;2023-05-07T01:59:04;101283.81;;;13.17;82.87
78685;BME280;68002;52.310;6.990;2023-05-07T02:01:30;101287.06;;;13.21;82.74
78685;BME280;68002;52.310;6.990;2023-05-07T02:03:55;101296.41;;;13.17;82.85
78685;BME280;68002;52.310;6.990;2023-05-07T02:06:20;101303.63;;;13.16;82.75
78685;BME280;68002;52.310;6.990;2023-05-07T02:08:47;101306.56;;;13.13;82.83
78685;BME280;68002;52.310;6.990;2023-05-07T02:11:13;101314.06;;;13.19;82.22
78685;BME280;68002;52.310;6.990;2023-05-07T02:13:39;101321.72;;;13.14;82.17
78685;BME280;68002;52.310;6.990;2023-05-07T02:16:04;101318.63;;;13.09;81.88
78685;BME280;68002;52.310;6.990;2023-05-07T02:18:29;101322.69;;;13.13;81.94
78685;BME280;68002;52.310;6.990;2023-05-07T02:20:55;101315.75;;;13.01;82.38
78685;BME280;68002;52.310;6.990;2023-05-07T02:23:20;101283.84;;;12.88;81.92
78685;BME280;68002;52.310;6.990;2023-05-07T02:25:46;101329.38;;;13.09;82.59
78685;BME280;68002;52.310;6.990;2023-05-07T02:28:11;101312.66;;;12.96;82.47
78685;BME280;68002;52.310;6.990;2023-05-07T02:30:37;101322.97;;;13.00;82.51
78685;BME280;68002;52.310;6.990;2023-05-07T02:33:02;101328.47;;;12.99;82.30
78685;BME280;68002;52.310;6.990;2023-05-07T02:35:28;101313.78;;;12.84;82.37
78685;BME280;68002;52.310;6.990;2023-05-07T02:37:54;101323.00;;;12.91;82.21
78685;BME280;68002;52.310;6.990;2023-05-07T02:40:19;101317.03;;;12.87;82.59
78685;BME280;68002;52.310;6.990;2023-05-07T02:42:44;101303.63;;;12.78;81.85
78685;BME280;68002;52.310;6.990;2023-05-07T02:45:10;101330.91;;;12.92;81.86
78685;BME280;68002;52.310;6.990;2023-05-07T02:47:35;101323.41;;;12.86;82.24
78685;BME280;68002;52.310;6.990;2023-05-07T02:50:00;101334.13;;;12.86;82.25
78685;BME280;68002;52.310;6.990;2023-05-07T02:52:25;101344.59;;;12.89;82.00
78685;BME280;68002;52.310;6.990;2023-05-07T02:54:51;101306.88;;;12.72;82.10
78685;BME280;68002;52.310;6.990;2023-05-07T02:57:16;101341.34;;;12.86;81.77
78685;BME280;68002;52.310;6.990;2023-05-07T02:59:42;101312.94;;;12.74;82.27
78685;BME280;68002;52.310;6.990;2023-05-07T03:02:07;101312.25;;;12.72;81.87
78685;BME280;68002;52.310;6.990;2023-05-07T03:04:32;101328.75;;;12.77;82.63
78685;BME280;68002;52.310;6.990;2023-05-07T03:06:57;101327.09;;;12.76;82.02
78685;BME280;68002;52.310;6.990;2023-05-07T03:09:23;101309.13;;;12.57;82.48
78685;BME280;68002;52.310;6.990;2023-05-07T03:11:48;101329.03;;;12.64;81.93
78685;BME280;68002;52.310;6.990;2023-05-07T03:14:13;101308.97;;;12.49;82.24
78685;BME280;68002;52.310;6.990;2023-05-07T03:16:39;101316.88;;;12.51;81.96
78685;BME280;68002;52.310;6.990;2023-05-07T03:19:04;101297.53;;;12.38;82.61
78685;BME280;68002;52.310;6.990;2023-05-07T03:21:30;101311.22;;;12.44;82.27
78685;BME280;68002;52.310;6.990;2023-05-07T03:23:55;101322.53;;;12.48;82.15
78685;BME280;68002;52.310;6.990;2023-05-07T03:28:48;101330.19;;;12.52;81.54
78685;BME280;68002;52.310;6.990;2023-05-07T03:31:13;101323.97;;;12.52;81.60
78685;BME280;68002;52.310;6.990;2023-05-07T03:33:50;101319.84;;;12.48;81.91
78685;BME280;68002;52.310;6.990;2023-05-07T03:36:15;101315.19;;;12.50;81.30
78685;BME280;68002;52.310;6.990;2023-05-07T03:38:40;101319.44;;;12.43;81.79
78685;BME280;68002;52.310;6.990;2023-05-07T03:41:05;101329.31;;;12.42;81.67
78685;BME280;68002;52.310;6.990;2023-05-07T03:43:31;101327.16;;;12.27;82.77
78685;BME280;68002;52.310;6.990;2023-05-07T03:45:56;101332.94;;;12.22;82.72
78685;BME280;68002;52.310;6.990;2023-05-07T03:48:21;101320.22;;;12.14;82.23
78685;BME280;68002;52.310;6.990;2023-05-07T03:50:46;101336.47;;;12.23;82.68
78685;BME280;68002;52.310;6.990;2023-05-07T03:53:11;101346.19;;;12.24;82.57
78685;BME280;68002;52.310;6.990;2023-05-07T03:55:37;101340.25;;;12.20;82.87
78685;BME280;68002;52.310;6.990;2023-05-07T03:58:02;101341.97;;;12.21;82.69
78685;BME280;68002;52.310;6.990;2023-05-07T04:00:27;101334.63;;;12.13;82.18
78685;BME280;68002;52.310;6.990;2023-05-07T04:02:52;101331.78;;;12.15;83.11
78685;BME280;68002;52.310;6.990;2023-05-07T04:05:17;101349.31;;;12.19;82.66
78685;BME280;68002;52.310;6.990;2023-05-07T04:07:43;101347.59;;;12.18;82.47
78685;BME280;68002;52.310;6.990;2023-05-07T04:10:08;101354.81;;;12.18;82.43
78685;BME280;68002;52.310;6.990;2023-05-07T04:12:33;101355.50;;;12.20;82.63
78685;BME280;68002;52.310;6.990;2023-05-07T04:14:59;101351.44;;;12.25;82.73
78685;BME280;68002;52.310;6.990;2023-05-07T04:17:24;101355.38;;;12.21;82.15
78685;BME280;68002;52.310;6.990;2023-05-07T04:19:49;101342.09;;;12.20;82.95
78685;BME280;68002;52.310;6.990;2023-05-07T04:22:14;101348.47;;;12.19;81.94
78685;BME280;68002;52.310;6.990;2023-05-07T04:24:39;101344.19;;;12.16;82.59
78685;BME280;68002;52.310;6.990;2023-05-07T04:27:05;101340.41;;;12.19;81.95
78685;BME280;68002;52.310;6.990;2023-05-07T04:29:30;101343.63;;;12.12;82.61
78685;BME280;68002;52.310;6.990;2023-05-07T04:31:55;101343.63;;;12.12;82.44
78685;BME280;68002;52.310;6.990;2023-05-07T04:34:20;101352.13;;;12.18;82.83
78685;BME280;68002;52.310;6.990;2023-05-07T04:36:45;101348.03;;;12.13;82.30
78685;BME280;68002;52.310;6.990;2023-05-07T04:39:11;101346.88;;;12.16;82.44
78685;BME280;68002;52.310;6.990;2023-05-07T04:41:36;101342.22;;;12.18;82.88
78685;BME280;68002;52.310;6.990;2023-05-07T04:44:01;101345.06;;;12.17;82.45
78685;BME280;68002;52.310;6.990;2023-05-07T04:46:27;101343.25;;;12.17;82.70
78685;BME280;68002;52.310;6.990;2023-05-07T04:48:52;101353.69;;;12.20;82.67
78685;BME280;68002;52.310;6.990;2023-05-07T04:51:17;101353.28;;;12.25;82.33
78685;BME280;68002;52.310;6.990;2023-05-07T04:53:42;101352.84;;;12.29;82.14
78685;BME280;68002;52.310;6.990;2023-05-07T04:56:07;101354.00;;;12.27;82.34
78685;BME280;68002;52.310;6.990;2023-05-07T04:58:33;101356.38;;;12.30;81.56
78685;BME280;68002;52.310;6.990;2023-05-07T05:00:58;101352.13;;;12.27;81.52
78685;BME280;68002;52.310;6.990;2023-05-07T05:03:24;101345.53;;;12.31;81.95
78685;BME280;68002;52.310;6.990;2023-05-07T05:05:50;101358.22;;;12.29;81.34
78685;BME280;68002;52.310;6.990;2023-05-07T05:08:15;101356.53;;;12.28;82.11
78685;BME280;68002;52.310;6.990;2023-05-07T05:10:41;101361.19;;;12.26;82.08
78685;BME280;68002;52.310;6.990;2023-05-07T05:13:06;101361.34;;;12.25;81.73
78685;BME280;68002;52.310;6.990;2023-05-07T05:15:31;101371.91;;;12.26;81.86
78685;BME280;68002;52.310;6.990;2023-05-07T05:17:56;101364.59;;;12.28;81.58
78685;BME280;68002;52.310;6.990;2023-05-07T05:20:21;101368.13;;;12.29;81.60
78685;BME280;68002;52.310;6.990;2023-05-07T05:22:47;101371.63;;;12.29;81.46
78685;BME280;68002;52.310;6.990;2023-05-07T05:25:12;101368.22;;;12.27;81.47
78685;BME280;68002;52.310;6.990;2023-05-07T05:27:37;101367.13;;;12.30;81.65
78685;BME280;68002;52.310;6.990;2023-05-07T05:30:03;101374.06;;;12.32;81.58
78685;BME280;68002;52.310;6.990;2023-05-07T05:32:29;101380.97;;;12.35;81.59
78685;BME280;68002;52.310;6.990;2023-05-07T05:34:54;101385.66;;;12.42;81.12
78685;BME280;68002;52.310;6.990;2023-05-07T05:37:19;101382.09;;;12.42;81.60
78685;BME280;68002;52.310;6.990;2023-05-07T05:39:44;101389.34;;;12.41;81.42
78685;BME280;68002;52.310;6.990;2023-05-07T05:42:09;101383.38;;;12.47;80.97
78685;BME280;68002;52.310;6.990;2023-05-07T05:44:35;101394.00;;;12.58;80.82
78685;BME280;68002;52.310;6.990;2023-05-07T05:47:00;101392.75;;;12.62;80.71
78685;BME280;68002;52.310;6.990;2023-05-07T05:49:25;101390.34;;;12.59;80.37
78685;BME280;68002;52.310;6.990;2023-05-07T05:51:50;101393.59;;;12.63;80.39
78685;BME280;68002;52.310;6.990;2023-05-07T05:54:16;101403.50;;;12.72;80.54
78685;BME280;68002;52.310;6.990;2023-05-07T05:56:41;101400.81;;;12.72;80.19
78685;BME280;68002;52.310;6.990;2023-05-07T05:59:07;101397.59;;;12.78;80.11
78685;BME280;68002;52.310;6.990;2023-05-07T06:01:32;101398.44;;;12.88;80.50
78685;BME280;68002;52.310;6.990;2023-05-07T06:03:57;101398.31;;;12.99;79.61
78685;BME280;68002;52.310;6.990;2023-05-07T06:06:22;101401.75;;;13.10;79.43
78685;BME280;68002;52.310;6.990;2023-05-07T06:08:48;101394.53;;;13.11;79.43
78685;BME280;68002;52.310;6.990;2023-05-07T06:11:13;101398.59;;;13.34;79.78
78685;BME280;68002;52.310;6.990;2023-05-07T06:13:38;101396.19;;;13.41;78.30
78685;BME280;68002;52.310;6.990;2023-05-07T06:16:03;101400.28;;;13.54;78.42
78685;BME280;68002;52.310;6.990;2023-05-07T06:18:29;101398.16;;;13.58;77.80
78685;BME280;68002;52.310;6.990;2023-05-07T06:20:54;101403.13;;;13.53;76.65
78685;BME280;68002;52.310;6.990;2023-05-07T06:23:19;101410.31;;;13.52;77.44
78685;BME280;68002;52.310;6.990;2023-05-07T06:25:51;101410.47;;;13.60;77.37
78685;BME280;68002;52.310;6.990;2023-05-07T06:28:16;101413.97;;;13.70;76.94
78685;BME280;68002;52.310;6.990;2023-05-07T06:30:41;101408.72;;;13.78;76.55
78685;BME280;68002;52.310;6.990;2023-05-07T06:33:07;101411.81;;;13.74;76.56
78685;BME280;68002;52.310;6.990;2023-05-07T06:35:32;101423.44;;;13.74;76.07
78685;BME280;68002;52.310;6.990;2023-05-07T06:37:57;101421.91;;;13.62;75.69
78685;BME280;68002;52.310;6.990;2023-05-07T06:40:22;101429.69;;;13.65;76.65
78685;BME280;68002;52.310;6.990;2023-05-07T06:42:48;101420.03;;;13.72;76.49
78685;BME280;68002;52.310;6.990;2023-05-07T06:45:13;101427.22;;;13.81;76.14
78685;BME280;68002;52.310;6.990;2023-05-07T06:47:38;101424.94;;;13.86;75.75
78685;BME280;68002;52.310;6.990;2023-05-07T06:50:03;101428.66;;;13.85;75.62
78685;BME280;68002;52.310;6.990;2023-05-07T06:52:29;101423.66;;;13.90;75.96
78685;BME280;68002;52.310;6.990;2023-05-07T06:54:54;101423.09;;;13.96;75.45
78685;BME280;68002;52.310;6.990;2023-05-07T06:57:19;101423.88;;;14.06;75.84
78685;BME280;68002;52.310;6.990;2023-05-07T06:59:44;101428.69;;;14.12;74.21
78685;BME280;68002;52.310;6.990;2023-05-07T07:02:09;101425.66;;;13.88;75.80
78685;BME280;68002;52.310;6.990;2023-05-07T07:04:35;101425.78;;;13.96;75.45
78685;BME280;68002;52.310;6.990;2023-05-07T07:07:00;101430.69;;;14.10;75.52
78685;BME280;68002;52.310;6.990;2023-05-07T07:09:25;101421.56;;;14.21;75.19
78685;BME280;68002;52.310;6.990;2023-05-07T07:11:50;101415.25;;;14.12;74.56
78685;BME280;68002;52.310;6.990;2023-05-07T07:14:15;101420.47;;;14.14;74.41
78685;BME280;68002;52.310;6.990;2023-05-07T07:16:41;101419.19;;;14.18;74.29
78685;BME280;68002;52.310;6.990;2023-05-07T07:19:06;101419.72;;;14.22;74.85
78685;BME280;68002;52.310;6.990;2023-05-07T07:21:31;101414.03;;;14.34;74.40
78685;BME280;68002;52.310;6.990;2023-05-07T07:23:56;101416.69;;;14.44;74.80
78685;BME280;68002;52.310;6.990;2023-05-07T07:26:22;101419.72;;;14.58;73.81
78685;BME280;68002;52.310;6.990;2023-05-07T07:28:47;101418.88;;;14.58;74.14
78685;BME280;68002;52.310;6.990;2023-05-07T07:31:12;101430.13;;;14.71;73.82
78685;BME280;68002;52.310;6.990;2023-05-07T07:33:38;101430.44;;;14.85;73.77
78685;BME280;68002;52.310;6.990;2023-05-07T07:36:05;101421.88;;;14.99;72.70
78685;BME280;68002;52.310;6.990;2023-05-07T07:38:31;101418.31;;;14.99;72.35
78685;BME280;68002;52.310;6.990;2023-05-07T07:40:56;101420.31;;;14.79;72.47
78685;BME280;68002;52.310;6.990;2023-05-07T07:43:21;101421.13;;;14.80;72.37
78685;BME280;68002;52.310;6.990;2023-05-07T07:45:46;101426.78;;;14.86;72.64
78685;BME280;68002;52.310;6.990;2023-05-07T07:48:12;101432.50;;;15.01;72.52
78685;BME280;68002;52.310;6.990;2023-05-07T07:50:37;101435.19;;;15.01;72.30
78685;BME280;68002;52.310;6.990;2023-05-07T07:53:03;101430.50;;;15.03;72.42
78685;BME280;68002;52.310;6.990;2023-05-07T07:55:28;101433.25;;;15.11;72.08
78685;BME280;68002;52.310;6.990;2023-05-07T07:57:53;101432.31;;;15.20;72.22
78685;BME280;68002;52.310;6.990;2023-05-07T08:00:19;101437.88;;;15.36;71.88
78685;BME280;68002;52.310;6.990;2023-05-07T08:02:44;101425.00;;;15.30;71.45
78685;BME280;68002;52.310;6.990;2023-05-07T08:05:09;101432.25;;;15.30;72.31
78685;BME280;68002;52.310;6.990;2023-05-07T08:07:34;101429.88;;;15.44;72.14
78685;BME280;68002;52.310;6.990;2023-05-07T08:09:59;101431.59;;;15.45;71.45
78685;BME280;68002;52.310;6.990;2023-05-07T08:12:25;101432.72;;;15.43;71.81
78685;BME280;68002;52.310;6.990;2023-05-07T08:14:50;101440.03;;;15.50;71.26
78685;BME280;68002;52.310;6.990;2023-05-07T08:17:15;101436.84;;;15.37;71.15
78685;BME280;68002;52.310;6.990;2023-05-07T08:19:41;101445.06;;;15.45;71.91
78685;BME280;68002;52.310;6.990;2023-05-07T08:22:06;101440.97;;;15.41;72.53
78685;BME280;68002;52.310;6.990;2023-05-07T08:24:31;101444.81;;;15.56;72.01
78685;BME280;68002;52.310;6.990;2023-05-07T08:26:56;101438.47;;;15.65;71.60
78685;BME280;68002;52.310;6.990;2023-05-07T08:29:22;101438.09;;;15.86;72.08
78685;BME280;68002;52.310;6.990;2023-05-07T08:31:47;101435.03;;;16.06;71.83
78685;BME280;68002;52.310;6.990;2023-05-07T08:34:12;101437.63;;;16.16;70.76
78685;BME280;68002;52.310;6.990;2023-05-07T08:36:37;101438.50;;;16.25;69.66
78685;BME280;68002;52.310;6.990;2023-05-07T08:39:03;101439.19;;;16.19;69.38
78685;BME280;68002;52.310;6.990;2023-05-07T08:41:28;101437.47;;;16.18;69.57
78685;BME280;68002;52.310;6.990;2023-05-07T08:43:54;101439.53;;;16.24;69.57
78685;BME280;68002;52.310;6.990;2023-05-07T08:46:22;101440.56;;;16.31;69.52
78685;BME280;68002;52.310;6.990;2023-05-07T08:48:49;101436.03;;;16.39;69.04
78685;BME280;68002;52.310;6.990;2023-05-07T08:51:16;101441.75;;;16.62;69.12
78685;BME280;68002;52.310;6.990;2023-05-07T08:53:42;101446.50;;;16.68;68.61
78685;BME280;68002;52.310;6.990;2023-05-07T08:56:08;101449.78;;;16.87;68.50
78685;BME280;68002;52.310;6.990;2023-05-07T08:58:34;101446.94;;;17.05;68.65
78685;BME280;68002;52.310;6.990;2023-05-07T09:01:03;101440.38;;;17.24;67.73
78685;BME280;68002;52.310;6.990;2023-05-07T09:03:31;101447.47;;;17.33;67.82
78685;BME280;68002;52.310;6.990;2023-05-07T09:05:57;101444.25;;;17.29;67.04
78685;BME280;68002;52.310;6.990;2023-05-07T09:08:25;101445.13;;;17.38;67.29
78685;BME280;68002;52.310;6.990;2023-05-07T09:10:51;101442.63;;;17.60;66.51
78685;BME280;68002;52.310;6.990;2023-05-07T09:13:17;101440.75;;;17.85;66.23
78685;BME280;68002;52.310;6.990;2023-05-07T09:15:42;101436.50;;;17.82;66.10
78685;BME280;68002;52.310;6.990;2023-05-07T09:18:07;101434.75;;;18.14;65.41
78685;BME280;68002;52.310;6.990;2023-05-07T09:20:32;101429.78;;;18.49;64.26
78685;BME280;68002;52.310;6.990;2023-05-07T09:22:57;101438.50;;;18.67;63.37
78685;BME280;68002;52.310;6.990;2023-05-07T09:25:30;101449.31;;;18.98;61.79
78685;BME280;68002;52.310;6.990;2023-05-07T09:27:56;101435.19;;;18.80;61.77
78685;BME280;68002;52.310;6.990;2023-05-07T09:30:21;101430.72;;;18.95;61.58
78685;BME280;68002;52.310;6.990;2023-05-07T09:32:46;101444.47;;;19.16;61.99
78685;BME280;68002;52.310;6.990;2023-05-07T09:35:15;101437.31;;;18.92;61.14
78685;BME280;68002;52.310;6.990;2023-05-07T09:37:41;101445.75;;;18.67;60.61
78685;BME280;68002;52.310;6.990;2023-05-07T09:40:07;101445.63;;;18.60;61.74
78685;BME280;68002;52.310;6.990;2023-05-07T09:42:32;101441.97;;;18.84;61.64
78685;BME280;68002;52.310;6.990;2023-05-07T09:44:59;101445.38;;;18.78;61.23
78685;BME280;68002;52.310;6.990;2023-05-07T09:47:24;101445.09;;;18.65;61.24
78685;BME280;68002;52.310;6.990;2023-05-07T09:49:50;101445.16;;;18.41;61.76
78685;BME280;68002;52.310;6.990;2023-05-07T09:52:20;101438.44;;;18.29;63.04
78685;BME280;68002;52.310;6.990;2023-05-07T09:54:46;101438.81;;;18.26;62.65
78685;BME280;68002;52.310;6.990;2023-05-07T09:57:13;101447.19;;;18.39;62.34
78685;BME280;68002;52.310;6.990;2023-05-07T09:59:42;101439.84;;;18.63;62.79
78685;BME280;68002;52.310;6.990;2023-05-07T10:02:09;101443.13;;;18.89;61.48
78685;BME280;68002;52.310;6.990;2023-05-07T10:04:35;101442.94;;;18.91;61.03
78685;BME280;68002;52.310;6.990;2023-05-07T10:07:01;101437.44;;;18.76;60.96
78685;BME280;68002;52.310;6.990;2023-05-07T10:09:27;101439.66;;;18.73;60.98
78685;BME280;68002;52.310;6.990;2023-05-07T10:11:54;101439.72;;;18.87;60.70
78685;BME280;68002;52.310;6.990;2023-05-07T10:14:20;101442.03;;;18.98;60.59
78685;BME280;68002;52.310;6.990;2023-05-07T10:16:47;101432.13;;;19.14;60.70
78685;BME280;68002;52.310;6.990;2023-05-07T10:19:12;101444.19;;;19.56;60.37
78685;BME280;68002;52.310;6.990;2023-05-07T10:21:39;101443.03;;;19.73;58.95
78685;BME280;68002;52.310;6.990;2023-05-07T10:24:34;101441.66;;;19.92;57.93
78685;BME280;68002;52.310;6.990;2023-05-07T10:27:01;101443.06;;;20.02;58.62
78685;BME280;68002;52.310;6.990;2023-05-07T10:35:22;101448.34;;;19.81;56.83
78685;BME280;68002;52.310;6.990;2023-05-07T10:37:48;101448.50;;;20.02;57.55
78685;BME280;68002;52.310;6.990;2023-05-07T10:40:14;101440.59;;;20.30;57.57
78685;BME280;68002;52.310;6.990;2023-05-07T10:42:53;101442.22;;;20.75;55.96
78685;BME280;68002;52.310;6.990;2023-05-07T10:45:18;101442.50;;;20.80;55.12
78685;BME280;68002;52.310;6.990;2023-05-07T10:48:06;101454.72;;;20.55;55.49
78685;BME280;68002;52.310;6.990;2023-05-07T10:50:32;101444.63;;;20.49;55.13
78685;BME280;68002;52.310;6.990;2023-05-07T10:55:45;101447.34;;;20.20;56.34
78685;BME280;68002;52.310;6.990;2023-05-07T10:58:27;101459.56;;;20.16;57.00
78685;BME280;68002;52.310;6.990;2023-05-07T11:01:11;101442.19;;;20.25;56.52
78685;BME280;68002;52.310;6.990;2023-05-07T11:04:15;101444.66;;;20.12;56.01
78685;BME280;68002;52.310;6.990;2023-05-07T11:06:40;101443.16;;;20.09;57.91
78685;BME280;68002;52.310;6.990;2023-05-07T11:09:05;101452.81;;;20.12;57.93
78685;BME280;68002;52.310;6.990;2023-05-07T11:11:47;101446.88;;;20.31;58.49
78685;BME280;68002;52.310;6.990;2023-05-07T11:14:14;101443.84;;;20.26;57.35
78685;BME280;68002;52.310;6.990;2023-05-07T11:16:40;101443.22;;;20.53;58.44
78685;BME280;68002;52.310;6.990;2023-05-07T11:19:06;101439.94;;;21.08;59.02
78685;BME280;68002;52.310;6.990;2023-05-07T11:21:39;101441.69;;;21.57;57.04
78685;BME280;68002;52.310;6.990;2023-05-07T11:24:06;101443.63;;;21.84;55.96
78685;BME280;68002;52.310;6.990;2023-05-07T11:26:46;101436.28;;;22.13;54.14
78685;BME280;68002;52.310;6.990;2023-05-07T11:29:13;101430.50;;;22.29;52.48
78685;BME280;68002;52.310;6.990;2023-05-07T11:31:38;101434.38;;;22.41;52.84
78685;BME280;68002;52.310;6.990;2023-05-07T11:34:05;101413.84;;;22.51;51.57
78685;BME280;68002;52.310;6.990;2023-05-07T11:36:31;101434.38;;;22.81;51.59
78685;BME280;68002;52.310;6.990;2023-05-07T11:38:57;101426.84;;;22.90;50.43
78685;BME280;68002;52.310;6.990;2023-05-07T11:41:22;101428.63;;;23.24;51.05
78685;BME280;68002;52.310;6.990;2023-05-07T11:43:58;101435.19;;;23.55;50.81
78685;BME280;68002;52.310;6.990;2023-05-07T11:46:24;101423.44;;;23.61;48.37
78685;BME280;68002;52.310;6.990;2023-05-07T11:48:49;101424.06;;;23.63;48.46
78685;BME280;68002;52.310;6.990;2023-05-07T11:51:18;101424.28;;;23.49;48.10
78685;BME280;68002;52.310;6.990;2023-05-07T11:53:44;101427.66;;;23.64;49.08
78685;BME280;68002;52.310;6.990;2023-05-07T11:56:10;101422.19;;;24.10;46.87
78685;BME280;68002;52.310;6.990;2023-05-07T11:58:36;101410.84;;;24.06;46.93
78685;BME280;68002;52.310;6.990;2023-05-07T12:01:02;101419.84;;;24.20;46.51
78685;BME280;68002;52.310;6.990;2023-05-07T12:03:28;101425.09;;;24.21;46.00
78685;BME280;68002;52.310;6.990;2023-05-07T12:05:53;101422.19;;;24.10;46.49
78685;BME280;68002;52.310;6.990;2023-05-07T12:08:19;101415.41;;;24.25;45.50
78685;BME280;68002;52.310;6.990;2023-05-07T12:10:47;101416.66;;;24.29;45.90
78685;BME280;68002;52.310;6.990;2023-05-07T12:13:17;101412.22;;;24.35;44.85
78685;BME280;68002;52.310;6.990;2023-05-07T12:15:43;101405.59;;;24.68;44.60
78685;BME280;68002;52.310;6.990;2023-05-07T12:18:09;101414.94;;;24.99;44.23
78685;BME280;68002;52.310;6.990;2023-05-07T12:20:36;101409.31;;;25.18;43.77
78685;BME280;68002;52.310;6.990;2023-05-07T12:23:02;101413.75;;;25.19;43.25
78685;BME280;68002;52.310;6.990;2023-05-07T12:25:39;101410.56;;;25.22;41.52
78685;BME280;68002;52.310;6.990;2023-05-07T12:28:05;101405.31;;;25.52;42.34
78685;BME280;68002;52.310;6.990;2023-05-07T12:30:38;101411.28;;;25.42;42.17
78685;BME280;68002;52.310;6.990;2023-05-07T12:33:03;101422.00;;;25.50;42.32
78685;BME280;68002;52.310;6.990;2023-05-07T12:35:40;101412.91;;;25.56;41.61
78685;BME280;68002;52.310;6.990;2023-05-07T12:38:08;101416.56;;;25.68;41.99
78685;BME280;68002;52.310;6.990;2023-05-07T12:43:06;101416.41;;;25.63;40.93
78685;BME280;68002;52.310;6.990;2023-05-07T12:45:31;101406.63;;;25.74;41.03
78685;BME280;68002;52.310;6.990;2023-05-07T12:48:02;101427.19;;;25.83;40.73
78685;BME280;68002;52.310;6.990;2023-05-07T12:50:31;101431.06;;;26.00;40.39
78685;BME280;68002;52.310;6.990;2023-05-07T12:52:56;101421.94;;;25.57;40.78
78685;BME280;68002;52.310;6.990;2023-05-07T12:55:21;101429.41;;;25.12;41.98
78685;BME280;68002;52.310;6.990;2023-05-07T12:57:50;101421.81;;;25.08;42.11
78685;BME280;68002;52.310;6.990;2023-05-07T13:00:15;101410.53;;;24.98;42.21